createdAt,value
2018-01-25T00:00:49.702Z,17.00
2018-01-25T00:01:50.411Z,5.00
2018-01-25T00:02:51.119Z,5.00
2018-01-25T00:03:51.848Z,8.00
2018-01-25T00:04:52.552Z,3.00
2018-01-25T00:05:53.262Z,3.00
2018-01-25T00:06:53.983Z,5.00
2018-01-25T00:07:54.694Z,15.00
2018-01-25T00:08:55.401Z,3.00
2018-01-25T00:09:56.108Z,3.00
2018-01-25T00:10:56.816Z,3.00
2018-01-25T00:11:57.540Z,3.00
2018-01-25T00:12:58.248Z,4.00
2018-01-25T00:13:58.958Z,6.00
2018-01-25T00:14:59.704Z,2.00
2018-01-25T00:16:00.374Z,3.00
2018-01-25T00:17:01.082Z,2.00
2018-01-25T00:18:01.790Z,3.00
2018-01-25T00:19:02.498Z,4.00
2018-01-25T00:20:03.205Z,2.00
2018-01-25T00:21:03.911Z,2.00
2018-01-25T00:22:04.618Z,2.00
2018-01-25T00:23:05.340Z,2.00
2018-01-25T00:24:06.060Z,2.00
2018-01-25T00:25:06.767Z,2.00
2018-01-25T00:26:07.475Z,3.00
2018-01-25T00:27:08.181Z,5.00
2018-01-25T00:28:08.887Z,6.00
2018-01-25T00:29:09.593Z,2.00
2018-01-25T00:30:10.299Z,2.00
2018-01-25T00:31:11.006Z,2.00
2018-01-25T00:32:11.711Z,2.00
2018-01-25T00:33:12.418Z,2.00
2018-01-25T00:34:13.126Z,2.00
2018-01-25T00:35:13.851Z,2.00
2018-01-25T00:36:14.568Z,1.00
2018-01-25T00:37:15.274Z,2.00
2018-01-25T00:38:15.979Z,2.00
2018-01-25T00:39:16.684Z,1.00
2018-01-25T00:40:17.391Z,2.00
2018-01-25T00:41:18.098Z,1.00
2018-01-25T00:42:18.804Z,2.00
2018-01-25T00:43:19.511Z,2.00
2018-01-25T00:44:20.218Z,2.00
2018-01-25T00:45:20.925Z,2.00
2018-01-25T00:46:21.645Z,9.00
2018-01-25T00:47:22.366Z,2.00
2018-01-25T00:48:23.072Z,2.00
2018-01-25T00:49:23.778Z,2.00
2018-01-25T00:50:24.488Z,2.00
2018-01-25T00:51:25.206Z,2.00
2018-01-25T00:52:25.914Z,4.00
2018-01-25T00:53:26.622Z,2.00
2018-01-25T00:54:27.329Z,2.00
2018-01-25T00:55:28.037Z,2.00
2018-01-25T00:56:28.744Z,1.00
2018-01-25T00:57:29.464Z,2.00
2018-01-25T00:58:30.184Z,1.00
2018-01-25T00:59:30.891Z,2.00
2018-01-25T01:00:31.597Z,1.00
2018-01-25T01:01:32.305Z,5.00
2018-01-25T01:02:33.010Z,1.00
2018-01-25T01:03:33.716Z,2.00
2018-01-25T01:04:34.421Z,2.00
2018-01-25T01:05:35.126Z,1.00
2018-01-25T01:06:35.834Z,2.00
2018-01-25T01:07:36.539Z,2.00
2018-01-25T01:08:37.247Z,2.00
2018-01-25T01:09:37.954Z,2.00
2018-01-25T01:10:38.659Z,1.00
2018-01-25T01:11:39.366Z,2.00
2018-01-25T01:12:40.073Z,2.00
2018-01-25T01:13:40.795Z,2.00
2018-01-25T01:14:41.501Z,2.00
2018-01-25T01:15:42.226Z,2.00
2018-01-25T01:16:42.931Z,1.00
2018-01-25T01:17:43.636Z,2.00
2018-01-25T01:18:44.343Z,1.00
2018-01-25T01:19:45.062Z,2.00
2018-01-25T01:20:45.769Z,2.00
2018-01-25T01:21:46.473Z,2.00
2018-01-25T01:22:47.179Z,2.00
2018-01-25T01:23:47.887Z,2.00
2018-01-25T01:24:48.592Z,2.00
2018-01-25T01:25:49.299Z,2.00
2018-01-25T01:26:50.007Z,2.00
2018-01-25T01:27:50.713Z,1.00
2018-01-25T01:28:51.420Z,2.00
2018-01-25T01:29:52.126Z,5.00
2018-01-25T01:30:52.845Z,2.00
2018-01-25T01:31:53.569Z,2.00
2018-01-25T01:32:54.274Z,2.00
2018-01-25T01:33:54.980Z,3.00
2018-01-25T01:34:55.686Z,2.00
2018-01-25T01:35:56.394Z,2.00
2018-01-25T01:36:57.099Z,4.00
2018-01-25T01:37:57.803Z,2.00
2018-01-25T01:38:58.515Z,2.00
2018-01-25T01:39:59.221Z,2.00
2018-01-25T01:40:59.933Z,2.00
2018-01-25T01:42:00.633Z,2.00
2018-01-25T01:43:01.339Z,2.00
2018-01-25T01:44:02.059Z,2.00
2018-01-25T01:45:02.777Z,2.00
2018-01-25T01:46:03.500Z,2.00
2018-01-25T01:47:04.206Z,2.00
2018-01-25T01:48:04.913Z,2.00
2018-01-25T01:49:05.620Z,3.00
2018-01-25T01:50:06.327Z,2.00
2018-01-25T01:51:07.034Z,2.00
2018-01-25T01:52:07.742Z,2.00
2018-01-25T01:53:08.449Z,2.00
2018-01-25T01:54:09.156Z,2.00
2018-01-25T01:55:09.862Z,3.00
2018-01-25T01:56:10.569Z,3.00
2018-01-25T01:57:11.274Z,2.00
2018-01-25T01:58:11.983Z,11.00
2018-01-25T01:59:12.688Z,3.00
2018-01-25T02:00:13.399Z,4.00
2018-01-25T02:01:14.115Z,4.00
2018-01-25T02:02:14.821Z,2.00
2018-01-25T02:03:15.542Z,2.00
2018-01-25T02:04:16.249Z,4.00
2018-01-25T02:05:16.955Z,4.00
2018-01-25T02:06:17.662Z,3.00
2018-01-25T02:07:18.368Z,3.00
2018-01-25T02:08:19.074Z,3.00
2018-01-25T02:09:19.781Z,3.00
2018-01-25T02:10:20.485Z,3.00
2018-01-25T02:11:21.207Z,3.00
2018-01-25T02:12:21.915Z,3.00
2018-01-25T02:13:22.625Z,11.00
2018-01-25T02:14:23.341Z,3.00
2018-01-25T02:15:24.047Z,3.00
2018-01-25T02:16:24.753Z,5.00
2018-01-25T02:17:25.472Z,3.00
2018-01-25T02:18:26.177Z,4.00
2018-01-25T02:19:26.884Z,5.00
2018-01-25T02:20:27.589Z,3.00
2018-01-25T02:21:28.310Z,3.00
2018-01-25T02:22:29.017Z,2.00
2018-01-25T02:23:29.725Z,3.00
2018-01-25T02:24:30.431Z,3.00
2018-01-25T02:25:31.139Z,5.00
2018-01-25T02:26:31.846Z,4.00
2018-01-25T02:27:32.554Z,4.00
2018-01-25T02:28:33.260Z,4.00
2018-01-25T02:29:33.966Z,4.00
2018-01-25T02:30:34.673Z,4.00
2018-01-25T02:31:35.380Z,4.00
2018-01-25T02:32:36.086Z,2.00
2018-01-25T02:33:36.794Z,5.00
2018-01-25T02:34:37.514Z,3.00
2018-01-25T02:35:38.218Z,4.00
2018-01-25T02:36:38.924Z,3.00
2018-01-25T02:37:39.630Z,4.00
2018-01-25T02:38:40.334Z,6.00
2018-01-25T02:39:41.038Z,4.00
2018-01-25T02:40:41.743Z,3.00
2018-01-25T02:41:42.449Z,5.00
2018-01-25T02:42:43.167Z,4.00
2018-01-25T02:43:43.873Z,4.00
2018-01-25T02:44:44.587Z,3.00
2018-01-25T02:45:45.305Z,3.00
2018-01-25T02:46:46.021Z,4.00
2018-01-25T02:47:46.741Z,3.00
2018-01-25T02:48:47.463Z,4.00
2018-01-25T02:49:48.168Z,5.00
2018-01-25T02:50:48.874Z,4.00
2018-01-25T02:51:49.581Z,5.00
2018-01-25T02:52:50.287Z,4.00
2018-01-25T02:53:50.992Z,4.00
2018-01-25T02:54:51.699Z,8.00
2018-01-25T02:55:52.405Z,4.00
2018-01-25T02:56:53.112Z,4.00
2018-01-25T02:57:53.817Z,3.00
2018-01-25T02:58:54.524Z,6.00
2018-01-25T02:59:55.233Z,7.00
2018-01-25T03:00:55.937Z,5.00
2018-01-25T03:01:56.647Z,7.00
2018-01-25T03:02:57.349Z,4.00
2018-01-25T03:03:58.055Z,3.00
2018-01-25T03:04:58.778Z,3.00
2018-01-25T03:05:59.483Z,4.00
2018-01-25T03:07:00.202Z,3.00
2018-01-25T03:08:00.921Z,3.00
2018-01-25T03:09:01.625Z,5.00
2018-01-25T03:10:02.331Z,8.00
2018-01-25T03:11:03.038Z,6.00
2018-01-25T03:12:03.759Z,5.00
2018-01-25T03:13:04.478Z,6.00
2018-01-25T03:14:05.184Z,8.00
2018-01-25T03:15:05.890Z,5.00
2018-01-25T03:16:06.609Z,7.00
2018-01-25T03:17:07.329Z,6.00
2018-01-25T03:18:08.035Z,12.00
2018-01-25T03:19:08.756Z,7.00
2018-01-25T03:20:09.475Z,4.00
2018-01-25T03:21:10.181Z,7.00
2018-01-25T03:22:10.887Z,6.00
2018-01-25T03:23:11.605Z,7.00
2018-01-25T03:24:12.311Z,5.00
2018-01-25T03:25:13.019Z,6.00
2018-01-25T03:26:13.725Z,5.00
2018-01-25T03:27:14.430Z,9.00
2018-01-25T03:28:15.151Z,7.00
2018-01-25T03:29:15.859Z,8.00
2018-01-25T03:30:16.564Z,6.00
2018-01-25T03:31:17.272Z,10.00
2018-01-25T03:32:17.983Z,16.00
2018-01-25T03:33:18.686Z,10.00
2018-01-25T03:34:19.392Z,5.00
2018-01-25T03:35:20.098Z,5.00
2018-01-25T03:36:20.806Z,16.00
2018-01-25T03:37:21.512Z,6.00
2018-01-25T03:38:22.218Z,14.00
2018-01-25T03:39:22.925Z,9.00
2018-01-25T03:40:23.630Z,8.00
2018-01-25T03:41:24.353Z,7.00
2018-01-25T03:42:25.056Z,8.00
2018-01-25T03:43:25.761Z,7.00
2018-01-25T03:44:26.467Z,6.00
2018-01-25T03:45:27.172Z,17.00
2018-01-25T03:46:27.880Z,14.00
2018-01-25T03:47:28.585Z,4.00
2018-01-25T03:48:29.302Z,7.00
2018-01-25T03:49:30.025Z,5.00
2018-01-25T03:50:30.732Z,10.00
2018-01-25T03:51:31.439Z,8.00
2018-01-25T03:52:32.148Z,11.00
2018-01-25T03:53:32.867Z,8.00
2018-01-25T03:54:33.572Z,8.00
2018-01-25T03:55:34.277Z,7.00
2018-01-25T03:56:34.987Z,12.00
2018-01-25T03:57:35.690Z,13.00
2018-01-25T03:58:36.397Z,11.00
2018-01-25T03:59:37.102Z,7.00
2018-01-25T04:00:37.822Z,10.00
2018-01-25T04:01:38.525Z,9.00
2018-01-25T04:02:39.233Z,7.00
2018-01-25T04:03:39.957Z,13.00
2018-01-25T04:04:40.677Z,13.00
2018-01-25T04:05:41.382Z,8.00
2018-01-25T04:06:42.089Z,10.00
2018-01-25T04:07:42.794Z,8.00
2018-01-25T04:08:43.500Z,12.00
2018-01-25T04:09:44.205Z,11.00
2018-01-25T04:10:44.911Z,17.00
2018-01-25T04:11:45.616Z,15.00
2018-01-25T04:12:46.322Z,13.00
2018-01-25T04:13:47.030Z,12.00
2018-01-25T04:14:47.750Z,9.00
2018-01-25T04:15:48.456Z,9.00
2018-01-25T04:16:49.162Z,12.00
2018-01-25T04:17:49.868Z,8.00
2018-01-25T04:18:50.575Z,12.00
2018-01-25T04:19:51.296Z,20.00
2018-01-25T04:20:52.005Z,13.00
2018-01-25T04:21:52.713Z,17.00
2018-01-25T04:22:53.436Z,9.00
2018-01-25T04:23:54.140Z,7.00
2018-01-25T04:24:54.860Z,13.00
2018-01-25T04:25:55.566Z,12.00
2018-01-25T04:26:56.274Z,13.00
2018-01-25T04:27:56.980Z,14.00
2018-01-25T04:28:57.685Z,9.00
2018-01-25T04:29:58.393Z,15.00
2018-01-25T04:30:59.099Z,10.00
2018-01-25T04:31:59.805Z,9.00
2018-01-25T04:33:00.509Z,15.00
2018-01-25T04:34:01.217Z,13.00
2018-01-25T04:35:01.924Z,12.00
2018-01-25T04:36:02.630Z,8.00
2018-01-25T04:37:03.337Z,12.00
2018-01-25T04:38:04.043Z,23.00
2018-01-25T04:39:04.751Z,14.00
2018-01-25T04:40:05.458Z,10.00
2018-01-25T04:41:06.162Z,8.00
2018-01-25T04:42:06.868Z,9.00
2018-01-25T04:43:07.581Z,12.00
2018-01-25T04:44:08.284Z,13.00
2018-01-25T04:45:08.991Z,14.00
2018-01-25T04:46:09.697Z,16.00
2018-01-25T04:47:10.401Z,8.00
2018-01-25T04:48:11.123Z,9.00
2018-01-25T04:49:11.831Z,12.00
2018-01-25T04:50:12.538Z,13.00
2018-01-25T04:51:13.247Z,17.00
2018-01-25T04:52:13.969Z,12.00
2018-01-25T04:53:14.677Z,19.00
2018-01-25T04:54:15.385Z,24.00
2018-01-25T04:55:16.092Z,18.00
2018-01-25T04:56:16.806Z,13.00
2018-01-25T04:57:17.507Z,15.00
2018-01-25T04:58:18.229Z,14.00
2018-01-25T04:59:18.938Z,12.00
2018-01-25T05:00:19.647Z,17.00
2018-01-25T05:01:20.358Z,15.00
2018-01-25T05:02:21.080Z,15.00
2018-01-25T05:03:21.786Z,16.00
2018-01-25T05:04:22.493Z,11.00
2018-01-25T05:05:23.205Z,16.00
2018-01-25T05:06:23.922Z,15.00
2018-01-25T05:07:24.633Z,21.00
2018-01-25T05:08:25.340Z,20.00
2018-01-25T05:09:26.049Z,12.00
2018-01-25T05:10:26.758Z,15.00
2018-01-25T05:11:27.467Z,15.00
2018-01-25T05:12:28.187Z,17.00
2018-01-25T05:13:28.894Z,14.00
2018-01-25T05:14:29.601Z,16.00
2018-01-25T05:15:30.327Z,21.00
2018-01-25T05:16:31.037Z,21.00
2018-01-25T05:17:31.745Z,18.00
2018-01-25T05:18:32.466Z,19.00
2018-01-25T05:19:33.188Z,23.00
2018-01-25T05:20:33.897Z,19.00
2018-01-25T05:21:34.602Z,16.00
2018-01-25T05:22:35.328Z,19.00
2018-01-25T05:23:36.033Z,18.00
2018-01-25T05:24:36.752Z,19.00
2018-01-25T05:25:37.461Z,17.00
2018-01-25T05:26:38.171Z,24.00
2018-01-25T05:27:38.892Z,22.00
2018-01-25T05:28:39.614Z,18.00
2018-01-25T05:29:40.323Z,19.00
2018-01-25T05:30:41.034Z,17.00
2018-01-25T05:31:41.742Z,20.00
2018-01-25T05:32:42.449Z,22.00
2018-01-25T05:33:43.157Z,18.00
2018-01-25T05:34:43.863Z,19.00
2018-01-25T05:35:44.586Z,23.00
2018-01-25T05:36:45.308Z,25.00
2018-01-25T05:37:46.015Z,23.00
2018-01-25T05:38:46.725Z,21.00
2018-01-25T05:39:47.433Z,20.00
2018-01-25T05:40:48.142Z,22.00
2018-01-25T05:41:48.850Z,22.00
2018-01-25T05:42:49.555Z,20.00
2018-01-25T05:43:50.263Z,17.00
2018-01-25T05:44:50.970Z,20.00
2018-01-25T05:45:51.678Z,28.00
2018-01-25T05:46:52.386Z,23.00
2018-01-25T05:47:53.109Z,28.00
2018-01-25T05:48:53.817Z,17.00
2018-01-25T05:49:54.539Z,13.00
2018-01-25T05:50:55.249Z,27.00
2018-01-25T05:51:55.972Z,19.00
2018-01-25T05:52:56.685Z,14.00
2018-01-25T05:53:57.391Z,28.00
2018-01-25T05:54:58.112Z,20.00
2018-01-25T05:55:58.819Z,25.00
2018-01-25T05:56:59.543Z,26.00
2018-01-25T05:58:00.253Z,22.00
2018-01-25T05:59:00.976Z,21.00
2018-01-25T06:00:01.697Z,14.00
2018-01-25T06:01:02.418Z,28.00
2018-01-25T06:02:03.128Z,15.00
2018-01-25T06:03:03.849Z,29.00
2018-01-25T06:04:04.557Z,23.00
2018-01-25T06:05:05.282Z,24.00
2018-01-25T06:06:05.992Z,19.00
2018-01-25T06:07:06.699Z,22.00
2018-01-25T06:08:07.411Z,19.00
2018-01-25T06:09:08.129Z,25.00
2018-01-25T06:10:08.837Z,22.00
2018-01-25T06:11:09.560Z,23.00
2018-01-25T06:12:10.269Z,16.00
2018-01-25T06:13:10.981Z,22.00
2018-01-25T06:14:11.700Z,32.00
2018-01-25T06:15:12.407Z,33.00
2018-01-25T06:16:13.115Z,20.00
2018-01-25T06:17:13.822Z,16.00
2018-01-25T06:18:14.531Z,20.00
2018-01-25T06:19:15.239Z,27.00
2018-01-25T06:20:15.948Z,27.00
2018-01-25T06:21:16.653Z,24.00
2018-01-25T06:22:17.361Z,20.00
2018-01-25T06:23:18.068Z,21.00
2018-01-25T06:24:18.774Z,26.00
2018-01-25T06:25:19.498Z,21.00
2018-01-25T06:26:20.206Z,26.00
2018-01-25T06:27:20.915Z,21.00
2018-01-25T06:28:21.624Z,27.00
2018-01-25T06:29:22.330Z,23.00
2018-01-25T06:30:23.038Z,22.00
2018-01-25T06:31:23.745Z,25.00
2018-01-25T06:32:24.453Z,22.00
2018-01-25T06:33:25.161Z,19.00
2018-01-25T06:34:25.867Z,18.00
2018-01-25T06:35:26.580Z,23.00
2018-01-25T06:36:27.298Z,22.00
2018-01-25T06:37:28.006Z,23.00
2018-01-25T06:38:28.728Z,26.00
2018-01-25T06:39:29.437Z,23.00
2018-01-25T06:40:30.145Z,20.00
2018-01-25T06:41:30.851Z,22.00
2018-01-25T06:42:31.559Z,25.00
2018-01-25T06:43:32.267Z,21.00
2018-01-25T06:44:32.976Z,34.00
2018-01-25T06:45:33.684Z,25.00
2018-01-25T06:46:34.394Z,19.00
2018-01-25T06:47:35.101Z,20.00
2018-01-25T06:48:35.824Z,19.00
2018-01-25T06:49:36.533Z,24.00
2018-01-25T06:50:37.256Z,17.00
2018-01-25T06:51:37.963Z,21.00
2018-01-25T06:52:38.685Z,23.00
2018-01-25T06:53:39.392Z,24.00
2018-01-25T06:54:40.100Z,22.00
2018-01-25T06:55:40.808Z,19.00
2018-01-25T06:56:41.516Z,16.00
2018-01-25T06:57:42.225Z,17.00
2018-01-25T06:58:42.934Z,18.00
2018-01-25T06:59:43.641Z,33.00
2018-01-25T07:00:44.349Z,10.00
2018-01-25T07:01:45.056Z,21.00
2018-01-25T07:02:45.777Z,24.00
2018-01-25T07:03:46.488Z,29.00
2018-01-25T07:04:47.197Z,25.00
2018-01-25T07:05:47.906Z,21.00
2018-01-25T07:06:48.614Z,18.00
2018-01-25T07:07:49.324Z,21.00
2018-01-25T07:08:50.035Z,22.00
2018-01-25T07:09:50.744Z,28.00
2018-01-25T07:10:51.455Z,16.00
2018-01-25T07:11:52.163Z,26.00
2018-01-25T07:12:52.885Z,24.00
2018-01-25T07:13:53.594Z,24.00
2018-01-25T07:14:54.303Z,23.00
2018-01-25T07:15:55.029Z,26.00
2018-01-25T07:16:55.737Z,16.00
2018-01-25T07:17:56.445Z,22.00
2018-01-25T07:18:57.153Z,14.00
2018-01-25T07:19:57.861Z,14.00
2018-01-25T07:20:58.570Z,21.00
2018-01-25T07:21:59.282Z,20.00
2018-01-25T07:22:59.992Z,37.00
2018-01-25T07:24:00.700Z,25.00
2018-01-25T07:25:01.411Z,28.00
2018-01-25T07:26:02.120Z,19.00
2018-01-25T07:27:02.832Z,16.00
2018-01-25T07:28:03.542Z,19.00
2018-01-25T07:29:04.266Z,34.00
2018-01-25T07:30:04.978Z,28.00
2018-01-25T07:31:05.687Z,16.00
2018-01-25T07:32:06.413Z,21.00
2018-01-25T07:33:07.123Z,17.00
2018-01-25T07:34:07.836Z,20.00
2018-01-25T07:35:08.595Z,15.00
2018-01-25T07:36:09.273Z,19.00
2018-01-25T07:37:10.000Z,16.00
2018-01-25T07:38:10.710Z,25.00
2018-01-25T07:39:11.421Z,30.00
2018-01-25T07:40:12.131Z,22.00
2018-01-25T07:41:12.840Z,22.00
2018-01-25T07:42:13.555Z,25.00
2018-01-25T07:43:14.285Z,27.00
2018-01-25T07:44:14.990Z,26.00
2018-01-25T07:45:15.702Z,24.00
2018-01-25T07:46:16.415Z,25.00
2018-01-25T07:47:17.124Z,21.00
2018-01-25T07:48:17.836Z,23.00
2018-01-25T07:49:18.548Z,27.00
2018-01-25T07:50:19.274Z,24.00
2018-01-25T07:51:20.002Z,24.00
2018-01-25T07:52:20.713Z,28.00
2018-01-25T07:53:21.425Z,29.00
2018-01-25T07:54:22.139Z,21.00
2018-01-25T07:55:22.849Z,18.00
2018-01-25T07:56:23.561Z,20.00
2018-01-25T07:57:24.274Z,34.00
2018-01-25T07:58:24.988Z,19.00
2018-01-25T07:59:25.698Z,26.00
2018-01-25T08:00:26.411Z,20.00
2018-01-25T08:01:27.123Z,26.00
2018-01-25T08:02:27.850Z,32.00
2018-01-25T08:03:28.564Z,18.00
2018-01-25T08:04:29.275Z,32.00
2018-01-25T08:05:29.988Z,18.00
2018-01-25T08:06:30.717Z,13.00
2018-01-25T08:07:31.430Z,18.00
2018-01-25T08:08:32.141Z,22.00
2018-01-25T08:09:32.868Z,15.00
2018-01-25T08:10:33.578Z,12.00
2018-01-25T08:11:34.292Z,23.00
2018-01-25T08:12:35.019Z,14.00
2018-01-25T08:13:35.734Z,24.00
2018-01-25T08:14:36.459Z,16.00
2018-01-25T08:15:37.169Z,32.00
2018-01-25T08:16:37.880Z,15.00
2018-01-25T08:17:38.605Z,19.00
2018-01-25T08:18:39.332Z,23.00
2018-01-25T08:19:40.043Z,13.00
2018-01-25T08:20:40.756Z,25.00
2018-01-25T08:21:41.485Z,17.00
2018-01-25T08:22:42.195Z,11.00
2018-01-25T08:23:42.920Z,20.00
2018-01-25T08:24:43.633Z,21.00
2018-01-25T08:25:44.346Z,27.00
2018-01-25T08:26:45.061Z,15.00
2018-01-25T08:27:45.773Z,27.00
2018-01-25T08:28:46.486Z,14.00
2018-01-25T08:29:47.197Z,18.00
2018-01-25T08:30:47.910Z,17.00
2018-01-25T08:31:48.623Z,27.00
2018-01-25T08:32:49.337Z,26.00
2018-01-25T08:33:50.064Z,15.00
2018-01-25T08:34:50.778Z,16.00
2018-01-25T08:35:51.493Z,29.00
2018-01-25T08:36:52.206Z,20.00
2018-01-25T08:37:52.918Z,17.00
2018-01-25T08:38:53.632Z,13.00
2018-01-25T08:39:54.342Z,28.00
2018-01-25T08:40:55.055Z,18.00
2018-01-25T08:41:55.769Z,15.00
2018-01-25T08:42:56.481Z,14.00
2018-01-25T08:43:57.193Z,22.00
2018-01-25T08:44:57.920Z,15.00
2018-01-25T08:45:58.633Z,25.00
2018-01-25T08:46:59.347Z,24.00
2018-01-25T08:48:00.061Z,18.00
2018-01-25T08:49:00.780Z,18.00
2018-01-25T08:50:01.502Z,12.00
2018-01-25T08:51:02.212Z,15.00
2018-01-25T08:52:02.938Z,21.00
2018-01-25T08:53:03.650Z,19.00
2018-01-25T08:54:04.384Z,18.00
2018-01-25T08:55:05.087Z,9.00
2018-01-25T08:56:05.798Z,17.00
2018-01-25T08:57:06.511Z,6.00
2018-01-25T08:58:07.236Z,16.00
2018-01-25T08:59:07.971Z,37.00
2018-01-25T09:00:08.663Z,14.00
2018-01-25T09:01:09.388Z,23.00
2018-01-25T09:02:10.103Z,18.00
2018-01-25T09:03:10.816Z,12.00
2018-01-25T09:04:11.527Z,15.00
2018-01-25T09:05:12.254Z,10.00
2018-01-25T09:06:12.984Z,20.00
2018-01-25T09:07:13.695Z,11.00
2018-01-25T09:08:14.408Z,9.00
2018-01-25T09:09:15.122Z,18.00
2018-01-25T09:10:15.835Z,14.00
2018-01-25T09:11:16.548Z,16.00
2018-01-25T09:12:17.265Z,12.00
2018-01-25T09:13:17.991Z,31.00
2018-01-25T09:14:18.719Z,16.00
2018-01-25T09:15:19.432Z,12.00
2018-01-25T09:16:20.142Z,9.00
2018-01-25T09:17:20.870Z,20.00
2018-01-25T09:18:21.587Z,13.00
2018-01-25T09:19:22.299Z,15.00
2018-01-25T09:20:23.011Z,19.00
2018-01-25T09:21:23.722Z,18.00
2018-01-25T09:22:24.434Z,26.00
2018-01-25T09:23:25.146Z,13.00
2018-01-25T09:24:25.874Z,12.00
2018-01-25T09:25:26.588Z,10.00
2018-01-25T09:26:27.312Z,10.00
2018-01-25T09:27:28.025Z,20.00
2018-01-25T09:28:28.754Z,10.00
2018-01-25T09:29:29.479Z,18.00
2018-01-25T09:30:30.193Z,16.00
2018-01-25T09:31:30.906Z,18.00
2018-01-25T09:32:31.620Z,19.00
2018-01-25T09:33:32.331Z,19.00
2018-01-25T09:34:33.043Z,24.00
2018-01-25T09:35:33.757Z,10.00
2018-01-25T09:36:34.470Z,11.00
2018-01-25T09:37:35.184Z,28.00
2018-01-25T09:38:35.898Z,14.00
2018-01-25T09:39:36.613Z,30.00
2018-01-25T09:40:37.326Z,16.00
2018-01-25T09:41:38.051Z,8.00
2018-01-25T09:42:38.763Z,19.00
2018-01-25T09:43:39.478Z,14.00
2018-01-25T09:44:40.192Z,9.00
2018-01-25T09:45:40.901Z,9.00
2018-01-25T09:46:41.628Z,13.00
2018-01-25T09:47:42.342Z,16.00
2018-01-25T09:48:43.088Z,25.00
2018-01-25T09:49:43.769Z,13.00
2018-01-25T09:50:44.503Z,16.00
2018-01-25T09:51:45.210Z,17.00
2018-01-25T09:52:45.922Z,13.00
2018-01-25T09:53:46.637Z,14.00
2018-01-25T09:54:47.350Z,21.00
2018-01-25T09:55:48.062Z,13.00
2018-01-25T09:56:48.781Z,11.00
2018-01-25T09:57:49.502Z,15.00
2018-01-25T09:58:50.217Z,14.00
2018-01-25T09:59:50.932Z,11.00
2018-01-25T10:00:51.644Z,27.00
2018-01-25T10:01:52.372Z,12.00
2018-01-25T10:02:53.083Z,12.00
2018-01-25T10:03:53.798Z,18.00
2018-01-25T10:04:54.523Z,11.00
2018-01-25T10:05:55.238Z,18.00
2018-01-25T10:06:55.951Z,15.00
2018-01-25T10:07:56.664Z,15.00
2018-01-25T10:08:57.380Z,12.00
2018-01-25T10:09:58.094Z,17.00
2018-01-25T10:10:58.806Z,20.00
2018-01-25T10:11:59.519Z,13.00
2018-01-25T10:13:00.232Z,24.00
2018-01-25T10:14:00.947Z,23.00
2018-01-25T10:15:01.659Z,23.00
2018-01-25T10:16:02.380Z,13.00
2018-01-25T10:17:03.093Z,21.00
2018-01-25T10:18:03.827Z,18.00
2018-01-25T10:19:04.536Z,21.00
2018-01-25T10:20:05.249Z,8.00
2018-01-25T10:21:05.968Z,12.00
2018-01-25T10:22:06.693Z,27.00
2018-01-25T10:23:07.407Z,22.00
2018-01-25T10:24:08.122Z,12.00
2018-01-25T10:25:08.835Z,17.00
2018-01-25T10:26:09.549Z,14.00
2018-01-25T10:27:10.274Z,15.00
2018-01-25T10:28:10.989Z,19.00
2018-01-25T10:29:11.713Z,11.00
2018-01-25T10:30:12.421Z,25.00
2018-01-25T10:31:13.132Z,27.00
2018-01-25T10:32:13.847Z,22.00
2018-01-25T10:33:14.563Z,10.00
2018-01-25T10:34:15.277Z,18.00
2018-01-25T10:35:15.992Z,20.00
2018-01-25T10:36:16.708Z,18.00
2018-01-25T10:37:17.423Z,17.00
2018-01-25T10:38:18.138Z,10.00
2018-01-25T10:39:18.853Z,22.00
2018-01-25T10:40:19.570Z,12.00
2018-01-25T10:41:20.284Z,18.00
2018-01-25T10:42:21.000Z,11.00
2018-01-25T10:43:21.726Z,20.00
2018-01-25T10:44:22.440Z,13.00
2018-01-25T10:45:23.156Z,12.00
2018-01-25T10:46:23.872Z,20.00
2018-01-25T10:47:24.599Z,14.00
2018-01-25T10:48:25.316Z,15.00
2018-01-25T10:49:26.030Z,14.00
2018-01-25T10:50:26.746Z,15.00
2018-01-25T10:51:27.461Z,20.00
2018-01-25T10:52:28.175Z,13.00
2018-01-25T10:53:28.889Z,23.00
2018-01-25T10:54:29.604Z,17.00
2018-01-25T10:55:30.320Z,14.00
2018-01-25T10:56:31.035Z,34.00
2018-01-25T10:57:31.751Z,28.00
2018-01-25T10:58:32.467Z,51.00
2018-01-25T10:59:33.181Z,25.00
2018-01-25T11:00:33.895Z,21.00
2018-01-25T11:01:34.643Z,24.00
2018-01-25T11:02:35.340Z,21.00
2018-01-25T11:03:36.062Z,24.00
2018-01-25T11:04:36.783Z,21.00
2018-01-25T11:05:37.497Z,19.00
2018-01-25T11:06:38.227Z,39.00
2018-01-25T11:07:38.944Z,29.00
2018-01-25T11:08:39.657Z,11.00
2018-01-25T11:09:40.374Z,17.00
2018-01-25T11:10:41.093Z,17.00
2018-01-25T11:11:41.819Z,13.00
2018-01-25T11:12:42.533Z,27.00
2018-01-25T11:13:43.263Z,18.00
2018-01-25T11:14:43.976Z,11.00
2018-01-25T11:15:44.694Z,9.00
2018-01-25T11:16:45.417Z,20.00
2018-01-25T11:17:46.133Z,12.00
2018-01-25T11:18:46.898Z,16.00
2018-01-25T11:19:47.578Z,17.00
2018-01-25T11:20:48.293Z,10.00
2018-01-25T11:21:49.008Z,24.00
2018-01-25T11:22:49.725Z,12.00
2018-01-25T11:23:50.454Z,16.00
2018-01-25T11:24:51.173Z,32.00
2018-01-25T11:25:51.903Z,11.00
2018-01-25T11:26:52.613Z,20.00
2018-01-25T11:27:53.328Z,13.00
2018-01-25T11:28:54.060Z,20.00
2018-01-25T11:29:54.776Z,37.00
2018-01-25T11:30:55.491Z,13.00
2018-01-25T11:31:56.211Z,37.00
2018-01-25T11:32:56.921Z,13.00
2018-01-25T11:33:57.636Z,22.00
2018-01-25T11:34:58.350Z,25.00
2018-01-25T11:35:59.066Z,26.00
2018-01-25T11:36:59.780Z,12.00
2018-01-25T11:38:00.508Z,12.00
2018-01-25T11:39:01.222Z,12.00
2018-01-25T11:40:01.937Z,14.00
2018-01-25T11:41:02.652Z,18.00
2018-01-25T11:42:03.368Z,25.00
2018-01-25T11:43:04.095Z,15.00
2018-01-25T11:44:04.810Z,15.00
2018-01-25T11:45:05.523Z,8.00
2018-01-25T11:46:06.241Z,12.00
2018-01-25T11:47:06.963Z,8.00
2018-01-25T11:48:07.668Z,24.00
2018-01-25T11:49:08.383Z,18.00
2018-01-25T11:50:09.114Z,17.00
2018-01-25T11:51:09.844Z,10.00
2018-01-25T11:52:10.556Z,21.00
2018-01-25T11:53:11.273Z,29.00
2018-01-25T11:54:12.004Z,18.00
2018-01-25T11:55:12.719Z,13.00
2018-01-25T11:56:13.450Z,11.00
2018-01-25T11:57:14.181Z,28.00
2018-01-25T11:58:14.912Z,27.00
2018-01-25T11:59:15.633Z,16.00
2018-01-25T12:00:16.344Z,19.00
2018-01-25T12:01:17.062Z,21.00
2018-01-25T12:02:17.836Z,10.00
2018-01-25T12:03:18.510Z,12.00
2018-01-25T12:04:19.238Z,15.00
2018-01-25T12:05:19.954Z,18.00
2018-01-25T12:06:20.670Z,19.00
2018-01-25T12:07:21.387Z,13.00
2018-01-25T12:08:22.103Z,14.00
2018-01-25T12:09:22.821Z,8.00
2018-01-25T12:10:23.581Z,12.00
2018-01-25T12:11:24.250Z,8.00
2018-01-25T12:12:24.982Z,27.00
2018-01-25T12:13:25.710Z,8.00
2018-01-25T12:14:26.426Z,22.00
2018-01-25T12:15:27.144Z,20.00
2018-01-25T12:16:27.860Z,8.00
2018-01-25T12:17:28.578Z,11.00
2018-01-25T12:18:29.295Z,17.00
2018-01-25T12:19:30.014Z,14.00
2018-01-25T12:20:30.743Z,10.00
2018-01-25T12:21:31.459Z,8.00
2018-01-25T12:22:32.177Z,16.00
2018-01-25T12:23:32.891Z,11.00
2018-01-25T12:24:33.605Z,21.00
2018-01-25T12:25:34.335Z,16.00
2018-01-25T12:26:35.049Z,17.00
2018-01-25T12:27:35.828Z,15.00
2018-01-25T12:28:36.479Z,21.00
2018-01-25T12:29:37.193Z,16.00
2018-01-25T12:30:37.922Z,14.00
2018-01-25T12:31:38.652Z,36.00
2018-01-25T12:32:39.378Z,7.00
2018-01-25T12:33:40.091Z,10.00
2018-01-25T12:34:40.809Z,10.00
2018-01-25T12:35:41.525Z,18.00
2018-01-25T12:36:42.255Z,6.00
2018-01-25T12:37:42.970Z,18.00
2018-01-25T12:38:43.700Z,12.00
2018-01-25T12:39:44.416Z,8.00
2018-01-25T12:40:45.132Z,16.00
2018-01-25T12:41:45.846Z,10.00
2018-01-25T12:42:46.561Z,13.00
2018-01-25T12:43:47.292Z,10.00
2018-01-25T12:44:48.007Z,27.00
2018-01-25T12:45:48.721Z,8.00
2018-01-25T12:46:49.434Z,17.00
2018-01-25T12:47:50.149Z,20.00
2018-01-25T12:48:50.863Z,14.00
2018-01-25T12:49:51.578Z,18.00
2018-01-25T12:50:52.293Z,19.00
2018-01-25T12:51:53.021Z,17.00
2018-01-25T12:52:53.751Z,17.00
2018-01-25T12:53:54.467Z,15.00
2018-01-25T12:54:55.178Z,15.00
2018-01-25T12:55:55.893Z,13.00
2018-01-25T12:56:56.607Z,19.00
2018-01-25T12:57:57.321Z,30.00
2018-01-25T12:58:58.036Z,12.00
2018-01-25T12:59:58.751Z,17.00
2018-01-25T13:00:59.464Z,10.00
2018-01-25T13:02:00.181Z,17.00
2018-01-25T13:03:00.891Z,15.00
2018-01-25T13:04:01.602Z,9.00
2018-01-25T13:05:02.315Z,8.00
2018-01-25T13:06:03.028Z,23.00
2018-01-25T13:07:03.740Z,17.00
2018-01-25T13:08:04.451Z,8.00
2018-01-25T13:09:05.163Z,11.00
2018-01-25T13:10:05.877Z,13.00
2018-01-25T13:11:06.590Z,15.00